createdAt,value
2019-05-22T00:00:27.553Z,14.50
2019-05-22T00:02:59.082Z,14.50
2019-05-22T00:05:35.949Z,14.40
2019-05-22T00:08:08.602Z,14.40
2019-05-22T00:10:40.995Z,14.30
2019-05-22T00:13:13.548Z,14.30
2019-05-22T00:15:46.264Z,14.30
2019-05-22T00:18:15.995Z,14.20
2019-05-22T00:20:46.886Z,14.00
2019-05-22T00:23:18.783Z,14.00
2019-05-22T00:25:48.503Z,14.00
2019-05-22T00:28:17.906Z,14.00
2019-05-22T00:30:49.256Z,14.00
2019-05-22T00:33:19.477Z,14.00
2019-05-22T00:35:51.222Z,13.90
2019-05-22T00:38:22.314Z,13.90
2019-05-22T00:40:57.412Z,13.90
2019-05-22T00:43:34.306Z,13.80
2019-05-22T00:46:05.326Z,13.90
2019-05-22T00:48:36.281Z,14.00
2019-05-22T00:51:10.590Z,13.90
2019-05-22T00:53:58.064Z,13.90
2019-05-22T00:56:45.724Z,13.80
2019-05-22T00:59:31.568Z,13.80
2019-05-22T01:02:11.767Z,13.80
2019-05-22T01:04:41.879Z,13.90
2019-05-22T01:07:18.605Z,14.00
2019-05-22T01:09:51.650Z,13.90
2019-05-22T01:12:29.024Z,13.90
2019-05-22T01:15:04.992Z,13.90
2019-05-22T01:17:36.533Z,13.90
2019-05-22T01:20:10.829Z,14.00
2019-05-22T01:22:42.572Z,13.90
2019-05-22T01:25:16.324Z,13.80
2019-05-22T01:27:47.593Z,13.80
2019-05-22T01:30:23.342Z,13.80
2019-05-22T01:32:53.930Z,14.00
2019-05-22T01:35:29.083Z,13.90
2019-05-22T01:37:59.748Z,13.80
2019-05-22T01:40:32.666Z,13.80
2019-05-22T01:43:03.820Z,13.80
2019-05-22T01:45:33.605Z,13.90
2019-05-22T01:48:06.449Z,13.90
2019-05-22T01:50:41.671Z,14.00
2019-05-22T01:53:12.803Z,14.10
2019-05-22T01:55:44.571Z,14.20
2019-05-22T01:58:15.774Z,14.00
2019-05-22T02:00:45.886Z,14.10
2019-05-22T02:03:17.202Z,14.20
2019-05-22T02:05:47.980Z,14.30
2019-05-22T02:08:17.837Z,14.50
2019-05-22T02:10:49.771Z,14.60
2019-05-22T02:13:25.747Z,14.80
2019-05-22T02:15:55.677Z,14.90
2019-05-22T02:18:27.561Z,14.80
2019-05-22T02:20:57.872Z,14.90
2019-05-22T02:23:27.343Z,14.90
2019-05-22T02:25:57.788Z,15.00
2019-05-22T02:28:27.303Z,15.00
2019-05-22T02:30:56.807Z,15.10
2019-05-22T02:33:27.190Z,15.20
2019-05-22T02:35:57.042Z,15.20
2019-05-22T02:38:26.874Z,15.10
2019-05-22T02:40:59.748Z,15.10
2019-05-22T02:43:30.976Z,15.00
2019-05-22T02:46:01.172Z,15.00
2019-05-22T02:48:31.514Z,15.00
2019-05-22T02:51:02.000Z,15.00
2019-05-22T02:53:31.506Z,15.00
2019-05-22T02:56:00.954Z,15.10
2019-05-22T02:58:31.475Z,15.10
2019-05-22T03:01:06.339Z,15.10
2019-05-22T03:03:37.579Z,15.10
2019-05-22T03:06:12.776Z,15.10
2019-05-22T03:09:05.159Z,15.10
2019-05-22T03:11:40.337Z,15.10
2019-05-22T03:14:11.300Z,15.10
2019-05-22T03:16:51.346Z,15.20
2019-05-22T03:19:47.806Z,15.10
2019-05-22T03:22:24.263Z,15.20
2019-05-22T03:24:55.308Z,15.20
2019-05-22T03:27:34.174Z,15.20
2019-05-22T03:30:06.801Z,15.30
2019-05-22T03:32:43.119Z,15.30
2019-05-22T03:35:10.709Z,15.20
2019-05-22T03:37:41.571Z,15.20
2019-05-22T03:40:12.727Z,15.20
2019-05-22T03:42:42.862Z,15.20
2019-05-22T03:45:13.631Z,15.20
2019-05-22T03:47:43.731Z,15.20
2019-05-22T03:50:13.834Z,15.20
2019-05-22T03:52:43.604Z,15.20
2019-05-22T03:55:13.124Z,15.20
2019-05-22T03:57:44.485Z,15.20
2019-05-22T04:00:17.625Z,15.30
2019-05-22T04:02:51.893Z,15.30
2019-05-22T04:05:22.285Z,15.30
2019-05-22T04:07:53.725Z,15.30
2019-05-22T04:10:26.171Z,15.40
2019-05-22T04:12:56.584Z,15.50
2019-05-22T04:15:26.417Z,15.50
2019-05-22T04:17:59.036Z,15.50
2019-05-22T04:20:30.570Z,15.50
2019-05-22T04:23:00.810Z,15.50
2019-05-22T04:25:30.412Z,15.60
2019-05-22T04:28:00.426Z,15.50
2019-05-22T04:30:29.816Z,15.50
2019-05-22T04:33:00.845Z,15.50
2019-05-22T04:35:30.422Z,15.50
2019-05-22T04:38:00.966Z,15.50
2019-05-22T04:40:39.385Z,15.50
2019-05-22T04:43:08.917Z,15.50
2019-05-22T04:45:38.282Z,15.50
2019-05-22T04:48:08.454Z,15.50
2019-05-22T04:50:37.962Z,15.50
2019-05-22T04:53:07.418Z,15.60
2019-05-22T04:55:37.032Z,15.50
2019-05-22T04:58:11.453Z,15.60
2019-05-22T05:00:41.225Z,15.60
2019-05-22T05:03:12.974Z,15.60
2019-05-22T05:05:44.193Z,15.60
2019-05-22T05:08:15.282Z,15.60
2019-05-22T05:10:48.131Z,15.70
2019-05-22T05:13:18.462Z,15.70
2019-05-22T05:15:47.937Z,15.70
2019-05-22T05:18:18.473Z,15.70
2019-05-22T05:20:48.243Z,15.70
2019-05-22T05:23:17.666Z,15.70
2019-05-22T05:25:47.073Z,15.70
2019-05-22T05:28:17.128Z,15.70
2019-05-22T05:30:46.589Z,15.70
2019-05-22T05:33:16.255Z,15.80
2019-05-22T05:35:46.068Z,15.80
2019-05-22T05:38:16.535Z,15.80
2019-05-22T05:40:46.486Z,15.80
2019-05-22T05:43:16.622Z,15.70
2019-05-22T05:45:48.760Z,15.70
2019-05-22T05:48:20.897Z,15.80
2019-05-22T05:51:08.703Z,15.80
2019-05-22T05:54:00.010Z,15.80
2019-05-22T05:56:30.298Z,15.90
2019-05-22T05:59:02.983Z,15.90
2019-05-22T06:01:40.224Z,15.90
2019-05-22T06:04:12.337Z,16.00
2019-05-22T06:06:44.892Z,16.00
2019-05-22T06:09:17.500Z,16.10
2019-05-22T06:11:52.327Z,16.10
2019-05-22T06:14:28.295Z,16.10
2019-05-22T06:17:26.638Z,16.30
2019-05-22T06:20:13.474Z,16.40
2019-05-22T06:22:45.467Z,16.50
2019-05-22T06:25:16.918Z,16.40
2019-05-22T06:27:49.684Z,16.50
2019-05-22T06:30:23.390Z,16.50
2019-05-22T06:33:12.358Z,16.60
2019-05-22T06:35:44.436Z,16.60
2019-05-22T06:38:32.062Z,16.70
2019-05-22T06:41:02.041Z,16.70
2019-05-22T06:43:37.643Z,16.70
2019-05-22T06:46:08.029Z,16.70
2019-05-22T06:48:37.883Z,16.80
2019-05-22T06:51:18.999Z,17.00
2019-05-22T06:53:38.959Z,17.20
2019-05-22T06:56:08.328Z,17.40
2019-05-22T06:58:38.000Z,17.50
2019-05-22T07:01:08.053Z,17.50
2019-05-22T07:03:37.816Z,17.60
2019-05-22T07:06:07.680Z,18.00
2019-05-22T07:08:37.483Z,18.30
2019-05-22T07:11:08.318Z,18.70
2019-05-22T07:13:38.116Z,18.70
2019-05-22T07:16:07.929Z,18.70
2019-05-22T07:18:37.728Z,18.70
2019-05-22T07:21:08.026Z,18.60
2019-05-22T07:23:37.544Z,18.60
2019-05-22T07:26:08.484Z,18.70
2019-05-22T07:28:38.761Z,18.80
2019-05-22T07:31:08.617Z,19.00
2019-05-22T07:33:38.585Z,19.20
2019-05-22T07:36:12.126Z,19.50
2019-05-22T07:38:39.630Z,19.90
2019-05-22T07:41:09.683Z,20.10
2019-05-22T07:43:41.752Z,20.10
2019-05-22T07:46:10.519Z,19.90
2019-05-22T07:48:40.916Z,20.00
2019-05-22T07:51:11.396Z,20.00
2019-05-22T07:53:41.782Z,19.80
2019-05-22T07:56:12.893Z,19.70
2019-05-22T07:58:44.168Z,19.60
2019-05-22T08:01:15.874Z,19.70
2019-05-22T08:03:47.449Z,19.70
2019-05-22T08:06:17.511Z,19.80
2019-05-22T08:08:47.424Z,20.10
2019-05-22T08:11:19.811Z,20.60
2019-05-22T08:13:50.565Z,21.80
2019-05-22T08:16:20.461Z,22.80
2019-05-22T08:18:50.393Z,23.50
2019-05-22T08:21:23.339Z,24.50
2019-05-22T08:23:53.936Z,25.60
2019-05-22T08:26:24.772Z,27.20
2019-05-22T08:28:55.308Z,29.60
2019-05-22T08:31:25.618Z,30.50
2019-05-22T08:33:56.307Z,30.00
2019-05-22T08:36:26.260Z,29.80
2019-05-22T08:38:55.699Z,29.90
2019-05-22T08:41:28.218Z,30.60
2019-05-22T08:44:15.178Z,30.60
2019-05-22T08:46:30.951Z,30.40
2019-05-22T08:49:01.453Z,29.40
2019-05-22T08:51:31.033Z,28.20
2019-05-22T08:54:00.708Z,27.10
2019-05-22T08:56:33.146Z,26.70
2019-05-22T08:59:18.448Z,26.50
2019-05-22T09:01:34.218Z,26.40
2019-05-22T09:04:05.329Z,26.40
2019-05-22T09:06:34.927Z,26.70
2019-05-22T09:09:06.511Z,26.50
2019-05-22T09:11:35.880Z,26.90
2019-05-22T09:14:05.406Z,28.70
2019-05-22T09:16:34.973Z,29.00
2019-05-22T09:19:04.577Z,29.20
2019-05-22T09:21:34.535Z,29.60
2019-05-22T09:24:04.758Z,35.40
2019-05-22T09:26:34.565Z,40.10
2019-05-22T09:29:05.022Z,40.20
2019-05-22T09:31:34.386Z,39.10
2019-05-22T09:34:03.826Z,39.60
2019-05-22T09:36:33.367Z,37.60
2019-05-22T09:39:03.681Z,35.40
2019-05-22T09:41:33.126Z,34.90
2019-05-22T09:44:03.065Z,34.70
2019-05-22T09:46:33.392Z,34.60
2019-05-22T09:49:03.294Z,34.10
2019-05-22T09:51:32.833Z,32.70
2019-05-22T09:54:03.492Z,31.00
2019-05-22T09:56:33.303Z,29.60
2019-05-22T09:59:02.976Z,28.40
2019-05-22T10:01:32.497Z,27.60
2019-05-22T10:04:02.329Z,27.40
2019-05-22T10:06:31.805Z,27.80
2019-05-22T10:09:01.491Z,28.60
2019-05-22T10:11:32.353Z,29.10
2019-05-22T10:14:02.643Z,29.30
2019-05-22T10:16:32.219Z,30.40
2019-05-22T10:19:01.830Z,31.40
2019-05-22T10:21:31.927Z,31.50
2019-05-22T10:24:01.733Z,31.20
2019-05-22T10:26:31.352Z,30.50
2019-05-22T10:29:01.160Z,30.10
2019-05-22T10:31:31.031Z,30.50
2019-05-22T10:34:00.647Z,30.70
2019-05-22T10:36:30.206Z,30.70
2019-05-22T10:38:59.593Z,30.50
2019-05-22T10:41:29.389Z,30.10
2019-05-22T10:43:59.662Z,29.90
2019-05-22T10:46:29.520Z,29.80
2019-05-22T10:48:59.500Z,29.50
2019-05-22T10:51:29.408Z,29.10
2019-05-22T10:53:59.627Z,28.70
2019-05-22T10:56:29.627Z,28.60
2019-05-22T10:59:01.519Z,28.60
2019-05-22T11:01:30.721Z,28.50
2019-05-22T11:04:00.519Z,28.40
2019-05-22T11:06:30.431Z,28.10
2019-05-22T11:08:59.922Z,27.90
2019-05-22T11:11:29.539Z,27.90
2019-05-22T11:14:02.018Z,27.90
2019-05-22T11:16:31.873Z,27.70
2019-05-22T11:19:02.672Z,28.20
2019-05-22T11:21:32.985Z,28.70
2019-05-22T11:24:02.930Z,28.80
2019-05-22T11:26:32.438Z,28.60
2019-05-22T11:29:03.042Z,28.50
2019-05-22T11:31:33.001Z,28.50
2019-05-22T11:34:02.645Z,28.90
2019-05-22T11:36:32.151Z,28.70
2019-05-22T11:39:01.659Z,28.70
2019-05-22T11:41:33.156Z,28.90
2019-05-22T11:44:02.733Z,29.10
2019-05-22T11:46:32.240Z,29.10
2019-05-22T11:49:01.668Z,29.00
2019-05-22T11:51:31.835Z,29.00
2019-05-22T11:54:09.259Z,28.60
2019-05-22T11:56:32.978Z,28.50
2019-05-22T11:59:04.546Z,28.60
2019-05-22T12:01:34.570Z,28.80
2019-05-22T12:04:05.684Z,29.00
2019-05-22T12:06:35.333Z,29.00
2019-05-22T12:09:07.572Z,29.30
2019-05-22T12:11:37.303Z,29.40
2019-05-22T12:14:08.103Z,29.20
2019-05-22T12:16:38.786Z,29.10
2019-05-22T12:19:09.510Z,29.20
2019-05-22T12:21:39.154Z,29.10
2019-05-22T12:24:18.566Z,29.00
2019-05-22T12:26:40.008Z,28.80
2019-05-22T12:29:09.559Z,28.80
2019-05-22T12:31:39.349Z,29.00
2019-05-22T12:34:09.001Z,29.20
2019-05-22T12:36:39.574Z,29.20
2019-05-22T12:39:11.661Z,29.20
2019-05-22T12:41:41.809Z,29.00
2019-05-22T12:44:12.000Z,28.50
2019-05-22T12:46:41.649Z,27.80
2019-05-22T12:49:12.298Z,27.20
2019-05-22T12:51:42.037Z,26.90
2019-05-22T12:54:11.995Z,26.50
2019-05-22T12:56:41.962Z,26.10
2019-05-22T12:59:12.474Z,25.80
2019-05-22T13:01:42.830Z,25.80
2019-05-22T13:04:13.312Z,25.80
2019-05-22T13:06:42.904Z,25.80
2019-05-22T13:09:12.669Z,26.10
2019-05-22T13:11:42.520Z,26.40
2019-05-22T13:14:12.229Z,26.50
2019-05-22T13:16:47.915Z,26.60
2019-05-22T13:19:14.358Z,26.50
2019-05-22T13:21:46.305Z,26.40
2019-05-22T13:24:18.913Z,26.10
2019-05-22T13:26:51.003Z,25.60
2019-05-22T13:29:21.487Z,25.10
2019-05-22T13:31:51.248Z,24.50
2019-05-22T13:34:23.852Z,24.20
2019-05-22T13:36:56.989Z,23.90
2019-05-22T13:39:27.340Z,23.80
2019-05-22T13:41:56.909Z,23.90
2019-05-22T13:44:26.680Z,24.00
2019-05-22T13:46:57.199Z,24.30
2019-05-22T13:49:28.522Z,24.60
2019-05-22T13:51:58.163Z,24.90
2019-05-22T13:54:28.010Z,25.20
2019-05-22T13:56:58.572Z,25.30
2019-05-22T13:59:28.623Z,25.20
2019-05-22T14:01:58.386Z,25.10
2019-05-22T14:04:28.023Z,24.90
2019-05-22T14:06:57.604Z,24.90
2019-05-22T14:09:28.479Z,24.90
2019-05-22T14:11:58.552Z,24.90
2019-05-22T14:14:28.347Z,24.80
2019-05-22T14:16:59.463Z,24.80
2019-05-22T14:19:29.178Z,24.80
2019-05-22T14:21:58.857Z,24.50
2019-05-22T14:24:28.521Z,24.20
2019-05-22T14:26:58.053Z,23.80
2019-05-22T14:29:27.679Z,23.60
2019-05-22T14:31:57.889Z,23.60
2019-05-22T14:34:28.312Z,23.70
2019-05-22T14:36:59.379Z,23.90
2019-05-22T14:39:30.361Z,23.90
2019-05-22T14:42:00.844Z,23.90
2019-05-22T14:44:33.753Z,23.60
2019-05-22T14:47:13.343Z,23.40
2019-05-22T14:49:33.276Z,23.40
2019-05-22T14:52:03.169Z,23.40
2019-05-22T14:54:32.798Z,23.40
2019-05-22T14:57:02.462Z,23.60
2019-05-22T14:59:32.148Z,23.60
2019-05-22T15:02:12.855Z,23.70
2019-05-22T15:04:45.016Z,24.00
2019-05-22T15:07:14.799Z,24.50
2019-05-22T15:09:44.574Z,24.70
2019-05-22T15:12:14.351Z,24.60
2019-05-22T15:14:44.130Z,24.70
2019-05-22T15:17:31.064Z,24.80
2019-05-22T15:19:47.626Z,24.90
2019-05-22T15:22:18.058Z,25.10
2019-05-22T15:24:47.964Z,25.00
2019-05-22T15:27:19.091Z,24.80
2019-05-22T15:29:48.815Z,24.50
2019-05-22T15:32:18.969Z,24.30
2019-05-22T15:34:48.925Z,24.20
2019-05-22T15:37:21.172Z,24.40
2019-05-22T15:39:51.008Z,24.50
2019-05-22T15:42:39.806Z,24.40
2019-05-22T15:45:12.437Z,24.40
2019-05-22T15:47:54.544Z,24.70
2019-05-22T15:50:20.962Z,25.00
2019-05-22T15:52:55.694Z,24.80
2019-05-22T15:55:26.521Z,24.70
2019-05-22T15:57:59.550Z,24.50
2019-05-22T16:00:34.922Z,24.40
2019-05-22T16:03:10.818Z,24.50
2019-05-22T16:05:42.094Z,24.50
2019-05-22T16:08:13.232Z,24.50
2019-05-22T16:10:45.090Z,24.40
2019-05-22T16:13:16.876Z,24.20
2019-05-22T16:15:49.947Z,24.10
2019-05-22T16:18:24.620Z,24.00
2019-05-22T16:20:55.052Z,24.10
2019-05-22T16:23:25.376Z,24.20
2019-05-22T16:25:55.306Z,24.20
2019-05-22T16:28:25.650Z,24.20
2019-05-22T16:30:56.090Z,24.10
2019-05-22T16:33:26.206Z,24.10
2019-05-22T16:35:56.543Z,24.10
2019-05-22T16:38:26.087Z,24.10
2019-05-22T16:40:56.193Z,24.10
2019-05-22T16:43:45.426Z,24.00
2019-05-22T16:45:58.479Z,23.70
2019-05-22T16:48:29.660Z,23.50
2019-05-22T16:50:59.774Z,23.20
2019-05-22T16:53:30.164Z,23.00
2019-05-22T16:55:59.906Z,22.80
2019-05-22T16:58:30.374Z,22.80
2019-05-22T17:01:02.801Z,22.80
2019-05-22T17:03:32.445Z,22.80
2019-05-22T17:06:02.532Z,22.70
2019-05-22T17:08:32.582Z,22.60
2019-05-22T17:11:04.686Z,22.40
2019-05-22T17:13:35.053Z,22.20
2019-05-22T17:16:06.965Z,22.10
2019-05-22T17:18:46.939Z,22.00
2019-05-22T17:21:09.129Z,21.80
2019-05-22T17:23:38.827Z,21.70
2019-05-22T17:26:08.397Z,21.60
2019-05-22T17:28:38.066Z,21.40
2019-05-22T17:31:08.128Z,21.10
2019-05-22T17:33:38.069Z,20.90
2019-05-22T17:36:08.001Z,20.80
2019-05-22T17:38:38.747Z,20.70
2019-05-22T17:41:10.779Z,20.50
2019-05-22T17:43:42.318Z,20.40
2019-05-22T17:46:13.600Z,20.20
2019-05-22T17:48:43.255Z,20.10
2019-05-22T17:51:13.545Z,20.00
2019-05-22T17:53:44.509Z,19.80
2019-05-22T17:56:14.485Z,19.70
2019-05-22T17:58:44.546Z,19.60
2019-05-22T18:01:15.743Z,19.70
2019-05-22T18:03:45.535Z,19.70
2019-05-22T18:06:15.488Z,19.60
2019-05-22T18:08:45.344Z,19.50
2019-05-22T18:11:15.319Z,19.50
2019-05-22T18:13:57.165Z,19.50
2019-05-22T18:16:27.236Z,19.50
2019-05-22T18:18:57.314Z,19.50
2019-05-22T18:21:27.066Z,19.40
2019-05-22T18:23:57.675Z,19.40
2019-05-22T18:26:27.820Z,19.40
2019-05-22T18:28:58.494Z,19.30
2019-05-22T18:31:28.201Z,19.30
2019-05-22T18:33:57.700Z,19.20
2019-05-22T18:36:27.236Z,19.20
2019-05-22T18:38:56.937Z,19.10
2019-05-22T18:41:26.419Z,19.10
2019-05-22T18:43:57.973Z,19.10
2019-05-22T18:46:27.473Z,19.10
2019-05-22T18:48:56.997Z,19.10
2019-05-22T18:51:26.487Z,19.00
2019-05-22T18:53:56.510Z,19.00
2019-05-22T18:56:26.211Z,18.90
2019-05-22T18:58:56.468Z,18.90
2019-05-22T19:01:26.370Z,18.90
2019-05-22T19:03:55.873Z,18.90
2019-05-22T19:06:30.367Z,18.90
2019-05-22T19:08:58.223Z,19.00
2019-05-22T19:11:27.980Z,18.90
2019-05-22T19:13:57.565Z,18.90
2019-05-22T19:16:27.890Z,18.90
2019-05-22T19:18:57.397Z,18.90
2019-05-22T19:21:26.940Z,18.90
2019-05-22T19:23:56.828Z,18.90
2019-05-22T19:26:26.696Z,18.80
2019-05-22T19:28:56.354Z,18.80
2019-05-22T19:31:26.361Z,18.70
2019-05-22T19:33:56.487Z,18.70
2019-05-22T19:36:26.083Z,18.50
2019-05-22T19:38:56.724Z,18.40
2019-05-22T19:41:26.485Z,18.20
2019-05-22T19:43:56.117Z,18.10
2019-05-22T19:46:25.808Z,18.00
2019-05-22T19:48:55.693Z,18.00
2019-05-22T19:51:25.278Z,17.90
2019-05-22T19:53:54.944Z,17.90
2019-05-22T19:56:25.711Z,17.90
2019-05-22T19:58:55.639Z,17.90
2019-05-22T20:01:26.158Z,18.00
2019-05-22T20:03:56.419Z,18.00
2019-05-22T20:06:26.326Z,18.00
2019-05-22T20:08:57.451Z,18.00
2019-05-22T20:11:28.125Z,17.90
2019-05-22T20:13:58.472Z,17.90
2019-05-22T20:16:29.187Z,17.90
2019-05-22T20:18:59.293Z,17.80
2019-05-22T20:21:29.228Z,17.80
2019-05-22T20:23:59.466Z,17.90
2019-05-22T20:26:29.102Z,17.90
2019-05-22T20:28:59.053Z,18.00
2019-05-22T20:31:29.904Z,17.90
2019-05-22T20:34:00.700Z,17.90
2019-05-22T20:36:31.236Z,17.80
2019-05-22T20:39:01.314Z,17.70
2019-05-22T20:41:32.664Z,17.60
2019-05-22T20:44:02.613Z,17.50
2019-05-22T20:46:32.851Z,17.40
2019-05-22T20:49:03.153Z,17.40
2019-05-22T20:51:33.117Z,17.30
2019-05-22T20:54:03.039Z,17.30
2019-05-22T20:56:34.899Z,17.20
2019-05-22T20:59:05.145Z,17.20
2019-05-22T21:01:35.198Z,17.20
2019-05-22T21:04:09.328Z,17.20
2019-05-22T21:06:48.636Z,17.20
2019-05-22T21:09:19.253Z,17.20
2019-05-22T21:11:49.789Z,17.20
2019-05-22T21:14:19.509Z,17.10
2019-05-22T21:16:49.827Z,17.10
2019-05-22T21:19:22.991Z,17.10
2019-05-22T21:21:51.931Z,17.10
2019-05-22T21:24:21.809Z,17.10
2019-05-22T21:26:51.219Z,17.20
2019-05-22T21:29:21.219Z,17.20
2019-05-22T21:31:50.861Z,17.30
2019-05-22T21:34:21.628Z,17.40
2019-05-22T21:36:51.307Z,17.50
2019-05-22T21:39:22.407Z,17.60
2019-05-22T21:41:52.926Z,17.70
2019-05-22T21:44:22.559Z,17.70
2019-05-22T21:46:52.823Z,17.70
2019-05-22T21:49:24.290Z,17.70
2019-05-22T21:51:54.112Z,17.60
2019-05-22T21:54:24.402Z,17.50
2019-05-22T21:56:54.570Z,17.30
2019-05-22T21:59:24.661Z,17.20
2019-05-22T22:01:59.012Z,17.30
2019-05-22T22:04:33.792Z,17.30
2019-05-22T22:07:04.715Z,17.30
2019-05-22T22:09:35.557Z,17.40
2019-05-22T22:12:08.367Z,17.50
2019-05-22T22:14:38.414Z,17.50
2019-05-22T22:17:10.162Z,17.50
2019-05-22T22:19:40.497Z,17.40
2019-05-22T22:22:13.510Z,17.40
2019-05-22T22:24:43.293Z,17.40
2019-05-22T22:27:12.970Z,17.40
2019-05-22T22:29:42.405Z,17.40
2019-05-22T22:32:13.078Z,17.50
2019-05-22T22:34:46.381Z,17.40
2019-05-22T22:37:18.229Z,17.40
2019-05-22T22:39:50.875Z,17.30
2019-05-22T22:42:21.978Z,17.30
2019-05-22T22:44:54.379Z,17.20
2019-05-22T22:47:28.402Z,17.10
2019-05-22T22:49:58.057Z,17.00
2019-05-22T22:52:27.740Z,16.90
2019-05-22T22:54:58.378Z,16.90
2019-05-22T22:57:28.010Z,16.80
2019-05-22T22:59:57.433Z,16.80
2019-05-22T23:02:30.716Z,16.70
2019-05-22T23:05:00.283Z,16.60
2019-05-22T23:07:31.805Z,16.50
2019-05-22T23:10:01.856Z,16.40
2019-05-22T23:12:31.831Z,16.40
2019-05-22T23:15:01.807Z,16.50
2019-05-22T23:17:31.582Z,16.50
2019-05-22T23:20:00.018Z,16.60
2019-05-22T23:22:28.785Z,16.60
2019-05-22T23:24:59.890Z,16.70
2019-05-22T23:27:31.565Z,16.80
2019-05-22T23:30:01.584Z,16.70
2019-05-22T23:32:31.764Z,16.60
2019-05-22T23:35:02.124Z,16.50
2019-05-22T23:37:32.385Z,16.40
2019-05-22T23:40:02.253Z,16.20
2019-05-22T23:42:36.376Z,16.10
2019-05-22T23:45:10.389Z,16.00
2019-05-22T23:47:45.576Z,15.90
2019-05-22T23:50:15.536Z,15.90
2019-05-22T23:52:45.039Z,15.90
2019-05-22T23:55:15.036Z,15.80
2019-05-22T23:57:47.188Z,15.80
